Osceola, Arkansas
Current Conditions -  °F | °C
As of 12:53 AM on Thursday 27 Nov 2014 (Local Time) from KHKA Reporting Station
Clear Clear  
Wind Chill:   Ceiling: Unl
Heat Index:   Visibility: 10mi
Dew Point:   Wind: 12mph
Humidity: 68%   Direction: 310°NW
Pressure: 30.22"   Gusts: NA
Location:  35.71°N, 89.97°W
Report Text: KHKA 270653Z AUTO 31010KT 10SM CLR 06/01 A3022 RMK AO2 SLP234 T00610006
Loading
Personal Weather Stations






























Interactive Weather Map New forecast layout! Learn more

10-Day Weather Forecast

Advertisements
Track Severe Weather on mobile